This is the latest recevied weather packets stored in our database for station/object YO3LAW-13. If no packets are shown the sender has not sent any weather packets the latest 10 day(s).
| Time | Temp. | Humidity | Pressure | Rain* | Wind** | Luminosity | Snow |
|---|---|---|---|---|---|---|---|
| 1777619457 | 10° C | 49% | 1015.4 hPa | 0 mm | - | - | - |
| 1777618857 | 10° C | 53% | 1015.4 hPa | 0 mm | - | - | - |
| 1777618257 | 10° C | 56% | 1015.4 hPa | 0 mm | - | - | - |
| 1777617657 | 8.89° C | 69% | 1015.2 hPa | 0 mm | - | - | - |
| 1777617057 | 8.33° C | 70% | 1015.2 hPa | 0 mm | - | - | - |
| 1777616457 | 7.78° C | 73% | 1015.3 hPa | 0 mm | - | - | - |
| 1777615857 | 7.22° C | 74% | 1014.9 hPa | 0 mm | - | - | - |
| 1777615257 | 6.67° C | 75% | 1015.3 hPa | 0 mm | - | - | - |
| 1777614657 | 6.67° C | 77% | 1015.2 hPa | 0 mm | - | - | - |
| 1777614057 | 6.11° C | 78% | 1015.1 hPa | 0 mm | - | - | - |
| 1777613457 | 6.11° C | 78% | 1015.1 hPa | 0 mm | - | - | - |
| 1777612857 | 6.11° C | 77% | 1015.1 hPa | 0 mm | - | - | - |
| 1777612257 | 6.67° C | 75% | 1015.1 hPa | 0 mm | - | - | - |
| 1777611657 | 6.11° C | 77% | 1015.1 hPa | 0 mm | - | - | - |
| 1777611057 | 6.11° C | 80% | 1015 hPa | 0 mm | - | - | - |
| 1777610457 | 4.44° C | 90% | 1014.9 hPa | 0 mm | - | - | - |
| 1777609857 | 3.33° C | 92% | 1015 hPa | 0 mm | - | - | - |
| 1777609257 | 2.78° C | 96% | 1014.9 hPa | 0 mm | - | - | - |
| 1777608657 | 2.22° C | 97% | 1014.9 hPa | 0 mm | - | - | - |
| 1777608057 | 1.67° C | 98% | 1015.1 hPa | 0 mm | - | - | - |
| 1777607457 | 1.67° C | 98% | 1014.9 hPa | 0 mm | - | - | - |
| 1777606857 | 1.67° C | 98% | 1014.9 hPa | 0 mm | - | - | - |
| 1777606257 | 1.67° C | 99% | 1014.8 hPa | 0 mm | - | - | - |
| 1777605657 | 1.67° C | 99% | 1014.7 hPa | 0 mm | - | - | - |
| 1777605057 | 1.67° C | 99% | 1014.7 hPa | 0 mm | - | - | - |
* Rain latest hour (hover to see other rain measurements)
** Current wind speed in m/s (hover to see current wind gust speed)